QFA2539 WIII-WALL
Flight info
| Callsign | QFA2539 |
|---|---|
| Flight time | 1h 44m |
| Altitude | 35000 |
| Route | EGUKO T9 SILJA |
| Aircraft | B738/M-SDE2E3FGHIRWXY/LB1 |
Departure
| Time | 2026-04-24 00:27 |
|---|---|
| Airport | Soekarno-Hatta International Airport (WIII) |
Arrival
| Time | 2026-04-24 02:12 |
|---|---|
| Airport | Sultan Aji Muhammad Sulaiman Sepinggan International Airport (WALL) |
| Time | Latitude | Longitude | Altitude | Speed | Heading |
|---|---|---|---|---|---|
| 2026-04-24 00:10 | -6.11963 | 106.65246 | 34 ft | 0 kts | 218° |
| 2026-04-24 00:18 | -6.11957 | 106.65250 | 34 ft | 2 kts | 218° |
| 2026-04-24 00:19 | -6.11945 | 106.65261 | 32 ft | 2 kts | 218° |
| 2026-04-24 00:19 | -6.11932 | 106.65271 | 34 ft | 2 kts | 218° |
| 2026-04-24 00:19 | -6.11919 | 106.65281 | 33 ft | 2 kts | 218° |
| 2026-04-24 00:19 | -6.11906 | 106.65291 | 32 ft | 2 kts | 218° |
| 2026-04-24 00:20 | -6.11893 | 106.65301 | 33 ft | 2 kts | 218° |
| 2026-04-24 00:20 | -6.11881 | 106.65312 | 32 ft | 2 kts | 219° |
| 2026-04-24 00:20 | -6.11880 | 106.65312 | 33 ft | 0 kts | 225° |
| 2026-04-24 00:21 | -6.11884 | 106.65284 | 32 ft | 8 kts | 279° |
| 2026-04-24 00:21 | -6.11822 | 106.65229 | 33 ft | 17 kts | 327° |
| 2026-04-24 00:22 | -6.11794 | 106.65123 | 34 ft | 19 kts | 249° |
| 2026-04-24 00:22 | -6.11853 | 106.64976 | 35 ft | 26 kts | 248° |
| 2026-04-24 00:22 | -6.11928 | 106.64787 | 35 ft | 32 kts | 250° |
| 2026-04-24 00:22 | -6.12012 | 106.64569 | 36 ft | 34 kts | 249° |
| 2026-04-24 00:23 | -6.12101 | 106.64360 | 36 ft | 30 kts | 243° |
| 2026-04-24 00:23 | -6.12232 | 106.64345 | 36 ft | 20 kts | 155° |
| 2026-04-24 00:23 | -6.12374 | 106.64411 | 36 ft | 26 kts | 157° |
| 2026-04-24 00:23 | -6.12560 | 106.64482 | 37 ft | 31 kts | 160° |
| 2026-04-24 00:24 | -6.12778 | 106.64567 | 37 ft | 36 kts | 156° |
| 2026-04-24 00:24 | -6.13025 | 106.64666 | 36 ft | 40 kts | 159° |
| 2026-04-24 00:24 | -6.13275 | 106.64763 | 39 ft | 37 kts | 159° |
| 2026-04-24 00:24 | -6.13503 | 106.64853 | 40 ft | 33 kts | 156° |
| 2026-04-24 00:25 | -6.13707 | 106.64921 | 41 ft | 26 kts | 192° |
| 2026-04-24 00:25 | -6.13788 | 106.64790 | 40 ft | 23 kts | 251° |
| 2026-04-24 00:25 | -6.13840 | 106.64643 | 41 ft | 22 kts | 250° |
| 2026-04-24 00:25 | -6.13896 | 106.64502 | 41 ft | 21 kts | 245° |
| 2026-04-24 00:26 | -6.14014 | 106.64449 | 42 ft | 21 kts | 165° |
| 2026-04-24 00:26 | -6.14149 | 106.64489 | 41 ft | 20 kts | 160° |
| 2026-04-24 00:26 | -6.14180 | 106.64516 | 39 ft | 1 kts | 105° |
| 2026-04-24 00:26 | -6.14176 | 106.64544 | 40 ft | 8 kts | 76° |
| 2026-04-24 00:27 | -6.14076 | 106.64804 | 40 ft | 76 kts | 68° |
| 2026-04-24 00:27 | -6.13787 | 106.65510 | 39 ft | 140 kts | 68° |
| 2026-04-24 00:27 | -6.13371 | 106.66571 | 243 ft | 174 kts | 70° |
| 2026-04-24 00:27 | -6.12929 | 106.67651 | 1214 ft | 160 kts | 70° |
| 2026-04-24 00:28 | -6.12508 | 106.68720 | 1878 ft | 171 kts | 70° |
| 2026-04-24 00:28 | -6.12030 | 106.69934 | 2110 ft | 201 kts | 69° |
| 2026-04-24 00:28 | -6.11479 | 106.71317 | 2328 ft | 224 kts | 69° |
| 2026-04-24 00:28 | -6.10862 | 106.72857 | 2578 ft | 247 kts | 69° |
| 2026-04-24 00:29 | -6.10434 | 106.74553 | 3195 ft | 254 kts | 84° |
| 2026-04-24 00:29 | -6.10353 | 106.76342 | 3943 ft | 258 kts | 88° |
| 2026-04-24 00:29 | -6.10340 | 106.78158 | 4694 ft | 262 kts | 89° |
| 2026-04-24 00:29 | -6.10330 | 106.80002 | 5402 ft | 266 kts | 89° |
| 2026-04-24 00:30 | -6.10312 | 106.81846 | 6149 ft | 269 kts | 88° |
| 2026-04-24 00:30 | -6.10284 | 106.83747 | 6751 ft | 273 kts | 88° |
| 2026-04-24 00:30 | -6.10249 | 106.85661 | 6965 ft | 274 kts | 88° |
| 2026-04-24 00:30 | -6.10209 | 106.87577 | 7005 ft | 273 kts | 88° |
| 2026-04-24 00:31 | -6.10166 | 106.89492 | 7014 ft | 276 kts | 88° |
| 2026-04-24 00:31 | -6.10120 | 106.91423 | 7016 ft | 276 kts | 88° |
| 2026-04-24 00:31 | -6.10072 | 106.93358 | 7019 ft | 277 kts | 88° |
| 2026-04-24 00:31 | -6.10025 | 106.95293 | 7021 ft | 278 kts | 88° |
| 2026-04-24 00:32 | -6.09976 | 106.97237 | 7075 ft | 279 kts | 88° |
| 2026-04-24 00:32 | -6.09928 | 106.99171 | 7647 ft | 281 kts | 88° |
| 2026-04-24 00:32 | -6.09878 | 107.01139 | 8379 ft | 282 kts | 88° |
| 2026-04-24 00:32 | -6.09828 | 107.03120 | 9054 ft | 285 kts | 88° |
| 2026-04-24 00:33 | -6.09792 | 107.05123 | 9738 ft | 288 kts | 89° |
| 2026-04-24 00:33 | -6.09792 | 107.07156 | 10351 ft | 292 kts | 89° |
| 2026-04-24 00:33 | -6.09799 | 107.09231 | 10721 ft | 306 kts | 89° |
| 2026-04-24 00:33 | -6.09803 | 107.11445 | 10878 ft | 327 kts | 89° |
| 2026-04-24 00:34 | -6.09805 | 107.13785 | 11159 ft | 340 kts | 89° |
| 2026-04-24 00:34 | -6.09709 | 107.16187 | 11633 ft | 346 kts | 79° |
| 2026-04-24 00:34 | -6.08870 | 107.18445 | 12270 ft | 347 kts | 59° |
| 2026-04-24 00:34 | -6.07334 | 107.20316 | 12868 ft | 351 kts | 44° |
| 2026-04-24 00:35 | -6.05529 | 107.21999 | 13123 ft | 358 kts | 42° |
| 2026-04-24 00:35 | -6.03675 | 107.23658 | 13101 ft | 353 kts | 42° |
| 2026-04-24 00:35 | -6.01841 | 107.25293 | 13473 ft | 355 kts | 42° |
| 2026-04-24 00:35 | -6.00007 | 107.26942 | 14155 ft | 354 kts | 42° |
| 2026-04-24 00:36 | -5.98182 | 107.28597 | 14807 ft | 354 kts | 43° |
| 2026-04-24 00:36 | -5.96373 | 107.30250 | 15351 ft | 358 kts | 43° |
| 2026-04-24 00:36 | -5.94527 | 107.31941 | 15918 ft | 361 kts | 43° |
| 2026-04-24 00:36 | -5.92664 | 107.33651 | 16472 ft | 364 kts | 43° |
| 2026-04-24 00:37 | -5.90786 | 107.35375 | 17010 ft | 368 kts | 43° |
| 2026-04-24 00:37 | -5.88886 | 107.37119 | 17584 ft | 371 kts | 43° |
| 2026-04-24 00:37 | -5.86976 | 107.38871 | 18119 ft | 374 kts | 43° |
| 2026-04-24 00:37 | -5.85043 | 107.40643 | 18570 ft | 377 kts | 43° |
| 2026-04-24 00:38 | -5.83095 | 107.42428 | 19054 ft | 380 kts | 43° |
| 2026-04-24 00:38 | -5.81139 | 107.44220 | 19504 ft | 383 kts | 43° |
| 2026-04-24 00:38 | -5.79165 | 107.46029 | 19948 ft | 386 kts | 43° |
| 2026-04-24 00:38 | -5.77180 | 107.47848 | 20413 ft | 388 kts | 43° |
| 2026-04-24 00:39 | -5.75177 | 107.49683 | 20850 ft | 391 kts | 43° |
| 2026-04-24 00:39 | -5.73160 | 107.51532 | 21268 ft | 395 kts | 43° |
| 2026-04-24 00:39 | -5.71125 | 107.53396 | 21684 ft | 397 kts | 43° |
| 2026-04-24 00:39 | -5.69079 | 107.55270 | 22144 ft | 399 kts | 43° |
| 2026-04-24 00:40 | -5.67043 | 107.57136 | 22572 ft | 402 kts | 43° |
| 2026-04-24 00:40 | -5.64968 | 107.59037 | 22961 ft | 405 kts | 43° |
| 2026-04-24 00:40 | -5.62880 | 107.60949 | 23333 ft | 408 kts | 43° |
| 2026-04-24 00:40 | -5.60773 | 107.62878 | 23692 ft | 411 kts | 43° |
| 2026-04-24 00:41 | -5.58653 | 107.64818 | 24027 ft | 413 kts | 43° |
| 2026-04-24 00:41 | -5.56522 | 107.66767 | 24352 ft | 415 kts | 43° |
| 2026-04-24 00:41 | -5.54381 | 107.68726 | 24709 ft | 417 kts | 43° |
| 2026-04-24 00:41 | -5.52234 | 107.70692 | 25043 ft | 419 kts | 43° |
| 2026-04-24 00:42 | -5.50076 | 107.72667 | 25336 ft | 422 kts | 43° |
| 2026-04-24 00:42 | -5.47903 | 107.74656 | 25632 ft | 424 kts | 43° |
| 2026-04-24 00:42 | -5.45713 | 107.76659 | 25973 ft | 426 kts | 43° |
| 2026-04-24 00:42 | -5.43526 | 107.78673 | 26312 ft | 427 kts | 45° |
| 2026-04-24 00:43 | -5.41599 | 107.80946 | 26598 ft | 429 kts | 54° |
| 2026-04-24 00:43 | -5.39867 | 107.83397 | 26890 ft | 431 kts | 56° |
| 2026-04-24 00:43 | -5.38201 | 107.85862 | 27161 ft | 434 kts | 56° |
| 2026-04-24 00:43 | -5.36503 | 107.88390 | 27455 ft | 436 kts | 56° |
| 2026-04-24 00:44 | -5.34793 | 107.90911 | 27764 ft | 438 kts | 56° |
| 2026-04-24 00:44 | -5.33057 | 107.93437 | 28061 ft | 440 kts | 56° |
| 2026-04-24 00:44 | -5.31307 | 107.95958 | 28345 ft | 442 kts | 55° |
| 2026-04-24 00:44 | -5.29536 | 107.98492 | 28606 ft | 444 kts | 55° |
| 2026-04-24 00:45 | -5.27755 | 108.01032 | 28878 ft | 446 kts | 55° |
| 2026-04-24 00:45 | -5.25986 | 108.03552 | 29152 ft | 448 kts | 55° |
| 2026-04-24 00:45 | -5.24186 | 108.06114 | 29406 ft | 450 kts | 55° |
| 2026-04-24 00:45 | -5.22384 | 108.08682 | 29650 ft | 452 kts | 55° |
| 2026-04-24 00:46 | -5.20569 | 108.11267 | 29902 ft | 454 kts | 55° |
| 2026-04-24 00:46 | -5.18747 | 108.13863 | 30122 ft | 456 kts | 55° |
| 2026-04-24 00:46 | -5.17513 | 108.15622 | 30271 ft | 456 kts | 55° |
| 2026-04-24 00:46 | -5.15688 | 108.18221 | 30603 ft | 454 kts | 55° |
| 2026-04-24 00:47 | -5.13897 | 108.20773 | 30992 ft | 451 kts | 55° |
| 2026-04-24 00:47 | -5.12091 | 108.23346 | 31381 ft | 449 kts | 55° |
| 2026-04-24 00:47 | -5.10301 | 108.25896 | 31724 ft | 447 kts | 55° |
| 2026-04-24 00:47 | -5.08510 | 108.28446 | 32064 ft | 446 kts | 55° |
| 2026-04-24 00:48 | -5.06729 | 108.30983 | 32402 ft | 444 kts | 55° |
| 2026-04-24 00:48 | -5.04952 | 108.33513 | 32720 ft | 444 kts | 55° |
| 2026-04-24 00:48 | -5.03178 | 108.36041 | 33066 ft | 442 kts | 55° |
| 2026-04-24 00:48 | -5.01409 | 108.38559 | 33384 ft | 441 kts | 55° |
| 2026-04-24 00:49 | -4.99642 | 108.41074 | 33699 ft | 440 kts | 55° |
| 2026-04-24 00:49 | -4.97881 | 108.43584 | 33996 ft | 439 kts | 55° |
| 2026-04-24 00:49 | -4.96126 | 108.46088 | 34269 ft | 438 kts | 55° |
| 2026-04-24 00:49 | -4.94374 | 108.48587 | 34516 ft | 438 kts | 55° |
| 2026-04-24 00:50 | -4.92623 | 108.51086 | 34772 ft | 437 kts | 55° |
| 2026-04-24 00:50 | -4.90872 | 108.53585 | 34878 ft | 439 kts | 55° |
| 2026-04-24 00:50 | -4.87358 | 108.58599 | 34874 ft | 438 kts | 55° |
| 2026-04-24 00:51 | -4.83862 | 108.63585 | 34879 ft | 435 kts | 55° |
| 2026-04-24 00:51 | -4.80412 | 108.68505 | 34884 ft | 433 kts | 55° |
| 2026-04-24 00:52 | -4.76951 | 108.73441 | 34881 ft | 432 kts | 55° |
| 2026-04-24 00:52 | -4.73496 | 108.78367 | 34882 ft | 431 kts | 55° |
| 2026-04-24 00:53 | -4.70210 | 108.83396 | 34881 ft | 431 kts | 62° |
| 2026-04-24 00:53 | -4.67609 | 108.88834 | 34882 ft | 432 kts | 65° |
| 2026-04-24 00:54 | -4.65122 | 108.94306 | 34886 ft | 434 kts | 65° |
| 2026-04-24 00:54 | -4.62569 | 108.99796 | 34884 ft | 435 kts | 65° |
| 2026-04-24 00:55 | -4.59965 | 109.05292 | 34888 ft | 437 kts | 64° |
| 2026-04-24 00:55 | -4.57341 | 109.10794 | 34886 ft | 438 kts | 64° |
| 2026-04-24 00:56 | -4.54725 | 109.16278 | 34886 ft | 439 kts | 64° |
| 2026-04-24 00:56 | -4.52089 | 109.21802 | 34889 ft | 439 kts | 64° |
| 2026-04-24 00:57 | -4.49453 | 109.27329 | 34888 ft | 439 kts | 64° |
| 2026-04-24 00:58 | -4.45502 | 109.35609 | 34889 ft | 438 kts | 64° |
| 2026-04-24 00:58 | -4.42873 | 109.41117 | 34887 ft | 437 kts | 64° |
| 2026-04-24 00:59 | -4.40250 | 109.46611 | 34889 ft | 436 kts | 64° |
| 2026-04-24 00:59 | -4.37633 | 109.52092 | 34892 ft | 435 kts | 64° |
| 2026-04-24 01:00 | -4.35022 | 109.57560 | 34889 ft | 434 kts | 64° |
| 2026-04-24 01:00 | -4.32431 | 109.62983 | 34893 ft | 433 kts | 64° |
| 2026-04-24 01:01 | -4.29833 | 109.68421 | 34891 ft | 432 kts | 64° |
| 2026-04-24 01:01 | -4.27240 | 109.73847 | 34892 ft | 431 kts | 64° |
| 2026-04-24 01:02 | -4.24670 | 109.79223 | 34893 ft | 430 kts | 64° |
| 2026-04-24 01:02 | -4.22085 | 109.84630 | 34890 ft | 430 kts | 64° |
| 2026-04-24 01:03 | -4.19498 | 109.90040 | 34895 ft | 430 kts | 64° |
| 2026-04-24 01:03 | -4.16911 | 109.95449 | 34897 ft | 430 kts | 64° |
| 2026-04-24 01:04 | -4.14319 | 110.00866 | 34901 ft | 431 kts | 64° |
| 2026-04-24 01:04 | -4.11725 | 110.06288 | 34900 ft | 432 kts | 64° |
| 2026-04-24 01:05 | -4.09128 | 110.11715 | 34899 ft | 432 kts | 64° |
| 2026-04-24 01:05 | -4.06542 | 110.17117 | 34901 ft | 433 kts | 64° |
| 2026-04-24 01:06 | -4.03934 | 110.22565 | 34898 ft | 434 kts | 64° |
| 2026-04-24 01:06 | -4.01321 | 110.28022 | 34898 ft | 434 kts | 64° |
| 2026-04-24 01:07 | -3.98703 | 110.33490 | 34900 ft | 435 kts | 64° |
| 2026-04-24 01:07 | -3.96085 | 110.38955 | 34902 ft | 436 kts | 64° |
| 2026-04-24 01:08 | -3.93463 | 110.44430 | 34900 ft | 436 kts | 64° |
| 2026-04-24 01:08 | -3.90838 | 110.49916 | 34903 ft | 436 kts | 64° |
| 2026-04-24 01:09 | -3.88215 | 110.55400 | 34899 ft | 437 kts | 65° |
| 2026-04-24 01:09 | -3.85589 | 110.60888 | 34900 ft | 437 kts | 64° |
| 2026-04-24 01:10 | -3.82978 | 110.66342 | 34901 ft | 437 kts | 65° |
| 2026-04-24 01:10 | -3.80352 | 110.71828 | 34901 ft | 437 kts | 65° |
| 2026-04-24 01:11 | -3.77726 | 110.77313 | 34899 ft | 437 kts | 65° |
| 2026-04-24 01:11 | -3.75101 | 110.82796 | 34903 ft | 436 kts | 65° |
| 2026-04-24 01:12 | -3.72475 | 110.88276 | 34901 ft | 436 kts | 65° |
| 2026-04-24 01:12 | -3.69849 | 110.93758 | 34902 ft | 436 kts | 65° |
| 2026-04-24 01:13 | -3.67218 | 110.99248 | 34900 ft | 436 kts | 65° |
| 2026-04-24 01:13 | -3.64595 | 111.04722 | 34901 ft | 436 kts | 65° |
| 2026-04-24 01:14 | -3.61988 | 111.10161 | 34902 ft | 436 kts | 65° |
| 2026-04-24 01:14 | -3.59361 | 111.15640 | 34901 ft | 436 kts | 65° |
| 2026-04-24 01:15 | -3.56737 | 111.21112 | 34901 ft | 436 kts | 65° |
| 2026-04-24 01:15 | -3.54111 | 111.26587 | 34901 ft | 436 kts | 65° |
| 2026-04-24 01:16 | -3.51485 | 111.32061 | 34900 ft | 436 kts | 65° |
| 2026-04-24 01:16 | -3.48860 | 111.37532 | 34900 ft | 436 kts | 65° |
| 2026-04-24 01:17 | -3.46234 | 111.43005 | 34901 ft | 436 kts | 65° |
| 2026-04-24 01:17 | -3.43626 | 111.48440 | 34901 ft | 436 kts | 65° |
| 2026-04-24 01:18 | -3.40999 | 111.53912 | 34900 ft | 436 kts | 65° |
| 2026-04-24 01:18 | -3.38373 | 111.59381 | 34901 ft | 436 kts | 65° |
| 2026-04-24 01:19 | -3.35748 | 111.64848 | 34900 ft | 436 kts | 65° |
| 2026-04-24 01:19 | -3.33116 | 111.70327 | 34902 ft | 436 kts | 65° |
| 2026-04-24 01:20 | -3.30490 | 111.75794 | 34903 ft | 436 kts | 65° |
| 2026-04-24 01:20 | -3.27862 | 111.81265 | 34909 ft | 435 kts | 65° |
| 2026-04-24 01:21 | -3.25234 | 111.86734 | 34903 ft | 436 kts | 65° |
| 2026-04-24 01:21 | -3.22626 | 111.92162 | 34903 ft | 435 kts | 65° |
| 2026-04-24 01:22 | -3.20001 | 111.97622 | 34905 ft | 435 kts | 65° |
| 2026-04-24 01:22 | -3.17377 | 112.03081 | 34908 ft | 435 kts | 65° |
| 2026-04-24 01:23 | -3.14758 | 112.08528 | 34908 ft | 434 kts | 65° |
| 2026-04-24 01:23 | -3.12141 | 112.13971 | 34908 ft | 434 kts | 65° |
| 2026-04-24 01:24 | -3.09525 | 112.19411 | 34909 ft | 433 kts | 65° |
| 2026-04-24 01:24 | -3.06914 | 112.24839 | 34904 ft | 433 kts | 65° |
| 2026-04-24 01:25 | -3.04324 | 112.30223 | 34912 ft | 432 kts | 65° |
| 2026-04-24 01:25 | -3.01982 | 112.35750 | 34907 ft | 431 kts | 69° |
| 2026-04-24 01:26 | -2.99815 | 112.41348 | 34911 ft | 431 kts | 69° |
| 2026-04-24 01:26 | -2.97640 | 112.46953 | 34908 ft | 431 kts | 69° |
| 2026-04-24 01:27 | -2.95445 | 112.52543 | 34916 ft | 431 kts | 69° |
| 2026-04-24 01:27 | -2.93239 | 112.58127 | 34912 ft | 432 kts | 69° |
| 2026-04-24 01:28 | -2.91030 | 112.63712 | 34915 ft | 431 kts | 69° |
| 2026-04-24 01:28 | -2.88835 | 112.69261 | 34914 ft | 431 kts | 69° |
| 2026-04-24 01:29 | -2.86623 | 112.74853 | 34909 ft | 431 kts | 69° |
| 2026-04-24 01:29 | -2.84417 | 112.80430 | 34911 ft | 431 kts | 69° |
| 2026-04-24 01:30 | -2.82208 | 112.86015 | 34914 ft | 431 kts | 69° |
| 2026-04-24 01:30 | -2.79999 | 112.91599 | 34911 ft | 432 kts | 69° |
| 2026-04-24 01:31 | -2.77801 | 112.97153 | 34912 ft | 431 kts | 69° |
| 2026-04-24 01:31 | -2.75593 | 113.02732 | 34911 ft | 431 kts | 69° |
| 2026-04-24 01:32 | -2.73383 | 113.08316 | 34917 ft | 431 kts | 69° |
| 2026-04-24 01:32 | -2.71549 | 113.12950 | 34916 ft | 431 kts | 69° |
| 2026-04-24 01:33 | -2.69326 | 113.18565 | 34914 ft | 431 kts | 69° |
| 2026-04-24 01:33 | -2.67134 | 113.24100 | 34911 ft | 431 kts | 69° |
| 2026-04-24 01:34 | -2.64923 | 113.29684 | 34918 ft | 431 kts | 69° |
| 2026-04-24 01:34 | -2.62712 | 113.35266 | 34910 ft | 432 kts | 69° |
| 2026-04-24 01:35 | -2.60426 | 113.40818 | 34903 ft | 432 kts | 64° |
| 2026-04-24 01:35 | -2.57231 | 113.45922 | 34901 ft | 433 kts | 57° |
| 2026-04-24 01:36 | -2.53866 | 113.50925 | 34905 ft | 433 kts | 57° |
| 2026-04-24 01:36 | -2.50531 | 113.55937 | 34896 ft | 433 kts | 58° |
| 2026-04-24 01:37 | -2.47241 | 113.60931 | 34897 ft | 433 kts | 58° |
| 2026-04-24 01:37 | -2.43935 | 113.65968 | 34897 ft | 433 kts | 58° |
| 2026-04-24 01:38 | -2.40631 | 113.71000 | 34896 ft | 433 kts | 58° |
| 2026-04-24 01:38 | -2.37325 | 113.76033 | 34895 ft | 433 kts | 58° |
| 2026-04-24 01:39 | -2.34018 | 113.81067 | 34896 ft | 433 kts | 58° |
| 2026-04-24 01:39 | -2.30721 | 113.86086 | 34909 ft | 438 kts | 58° |
| 2026-04-24 01:40 | -2.27337 | 113.91238 | 34909 ft | 448 kts | 58° |
| 2026-04-24 01:40 | -2.24048 | 113.96595 | 34896 ft | 456 kts | 66° |
| 2026-04-24 01:41 | -2.21466 | 114.02439 | 34901 ft | 462 kts | 67° |
| 2026-04-24 01:41 | -2.18930 | 114.08374 | 34895 ft | 464 kts | 68° |
| 2026-04-24 01:42 | -2.16361 | 114.14314 | 34895 ft | 465 kts | 67° |
| 2026-04-24 01:42 | -2.13767 | 114.20241 | 34894 ft | 465 kts | 67° |
| 2026-04-24 01:43 | -2.11182 | 114.26124 | 34895 ft | 465 kts | 67° |
| 2026-04-24 01:43 | -2.08583 | 114.32038 | 34891 ft | 464 kts | 67° |
| 2026-04-24 01:44 | -2.05988 | 114.37946 | 34895 ft | 463 kts | 67° |
| 2026-04-24 01:44 | -2.03401 | 114.43836 | 34897 ft | 462 kts | 67° |
| 2026-04-24 01:45 | -2.00819 | 114.49715 | 34900 ft | 462 kts | 67° |
| 2026-04-24 01:45 | -1.98233 | 114.55603 | 34901 ft | 461 kts | 67° |
| 2026-04-24 01:46 | -1.95656 | 114.61470 | 34905 ft | 461 kts | 67° |
| 2026-04-24 01:46 | -1.93079 | 114.67335 | 34902 ft | 461 kts | 67° |
| 2026-04-24 01:47 | -1.90519 | 114.73160 | 34904 ft | 460 kts | 67° |
| 2026-04-24 01:47 | -1.87943 | 114.79023 | 34906 ft | 460 kts | 67° |
| 2026-04-24 01:48 | -1.85365 | 114.84887 | 34910 ft | 460 kts | 67° |
| 2026-04-24 01:48 | -1.82787 | 114.90754 | 34914 ft | 460 kts | 67° |
| 2026-04-24 01:49 | -1.80210 | 114.96617 | 34915 ft | 460 kts | 67° |
| 2026-04-24 01:49 | -1.77650 | 115.02440 | 34914 ft | 460 kts | 67° |
| 2026-04-24 01:50 | -1.75059 | 115.08334 | 34920 ft | 460 kts | 67° |
| 2026-04-24 01:50 | -1.72497 | 115.14162 | 34918 ft | 460 kts | 67° |
| 2026-04-24 01:51 | -1.69920 | 115.20022 | 34920 ft | 460 kts | 67° |
| 2026-04-24 01:51 | -1.67503 | 115.25954 | 34692 ft | 463 kts | 71° |
| 2026-04-24 01:51 | -1.66438 | 115.28999 | 34094 ft | 464 kts | 72° |
| 2026-04-24 01:52 | -1.65408 | 115.32046 | 33400 ft | 463 kts | 72° |
| 2026-04-24 01:52 | -1.64380 | 115.35097 | 32671 ft | 463 kts | 72° |
| 2026-04-24 01:52 | -1.63340 | 115.38152 | 31933 ft | 463 kts | 72° |
| 2026-04-24 01:52 | -1.62289 | 115.41203 | 31183 ft | 464 kts | 71° |
| 2026-04-24 01:53 | -1.61230 | 115.44255 | 30404 ft | 466 kts | 71° |
| 2026-04-24 01:53 | -1.60160 | 115.47327 | 29523 ft | 468 kts | 71° |
| 2026-04-24 01:53 | -1.59088 | 115.50402 | 28708 ft | 468 kts | 71° |
| 2026-04-24 01:53 | -1.58026 | 115.53447 | 28114 ft | 461 kts | 71° |
| 2026-04-24 01:54 | -1.56975 | 115.56463 | 27511 ft | 456 kts | 71° |
| 2026-04-24 01:54 | -1.55936 | 115.59447 | 26923 ft | 451 kts | 71° |
| 2026-04-24 01:54 | -1.54911 | 115.62390 | 26347 ft | 446 kts | 71° |
| 2026-04-24 01:54 | -1.53907 | 115.65271 | 25772 ft | 442 kts | 71° |
| 2026-04-24 01:55 | -1.52899 | 115.68166 | 25170 ft | 439 kts | 71° |
| 2026-04-24 01:55 | -1.51900 | 115.71034 | 24589 ft | 436 kts | 71° |
| 2026-04-24 01:55 | -1.50907 | 115.73889 | 24020 ft | 433 kts | 71° |
| 2026-04-24 01:55 | -1.49923 | 115.76716 | 23433 ft | 430 kts | 71° |
| 2026-04-24 01:56 | -1.48944 | 115.79530 | 22782 ft | 426 kts | 71° |
| 2026-04-24 01:56 | -1.47975 | 115.82313 | 22195 ft | 422 kts | 71° |
| 2026-04-24 01:56 | -1.47016 | 115.85069 | 21625 ft | 417 kts | 71° |
| 2026-04-24 01:56 | -1.46067 | 115.87795 | 21075 ft | 413 kts | 71° |
| 2026-04-24 01:57 | -1.45129 | 115.90491 | 20528 ft | 408 kts | 71° |
| 2026-04-24 01:57 | -1.44200 | 115.93161 | 19992 ft | 404 kts | 71° |
| 2026-04-24 01:57 | -1.43280 | 115.95804 | 19461 ft | 401 kts | 71° |
| 2026-04-24 01:57 | -1.42369 | 115.98422 | 18918 ft | 397 kts | 71° |
| 2026-04-24 01:58 | -1.41466 | 116.01017 | 18379 ft | 394 kts | 71° |
| 2026-04-24 01:58 | -1.40565 | 116.03605 | 17785 ft | 392 kts | 71° |
| 2026-04-24 01:58 | -1.39686 | 116.06132 | 17226 ft | 388 kts | 71° |
| 2026-04-24 01:58 | -1.38803 | 116.08667 | 16691 ft | 384 kts | 71° |
| 2026-04-24 01:59 | -1.37927 | 116.11182 | 16155 ft | 381 kts | 71° |
| 2026-04-24 01:59 | -1.37062 | 116.13675 | 15661 ft | 377 kts | 71° |
| 2026-04-24 01:59 | -1.36219 | 116.16140 | 15189 ft | 373 kts | 71° |
| 2026-04-24 01:59 | -1.35388 | 116.18585 | 14714 ft | 370 kts | 71° |
| 2026-04-24 02:00 | -1.34566 | 116.21006 | 14233 ft | 367 kts | 71° |
| 2026-04-24 02:00 | -1.33746 | 116.23411 | 13772 ft | 364 kts | 71° |
| 2026-04-24 02:00 | -1.32933 | 116.25795 | 13259 ft | 361 kts | 71° |
| 2026-04-24 02:00 | -1.32127 | 116.28151 | 12830 ft | 355 kts | 71° |
| 2026-04-24 02:01 | -1.31316 | 116.30455 | 12532 ft | 349 kts | 71° |
| 2026-04-24 02:01 | -1.30506 | 116.32728 | 12235 ft | 346 kts | 71° |
| 2026-04-24 02:01 | -1.29693 | 116.35008 | 11945 ft | 348 kts | 71° |
| 2026-04-24 02:01 | -1.28882 | 116.37288 | 11547 ft | 347 kts | 71° |
| 2026-04-24 02:02 | -1.28077 | 116.39556 | 11128 ft | 344 kts | 71° |
| 2026-04-24 02:02 | -1.27307 | 116.41725 | 11081 ft | 329 kts | 71° |
| 2026-04-24 02:02 | -1.26558 | 116.43847 | 10889 ft | 318 kts | 73° |
| 2026-04-24 02:02 | -1.26361 | 116.45956 | 10736 ft | 299 kts | 101° |
| 2026-04-24 02:03 | -1.27844 | 116.49597 | 10213 ft | 278 kts | 113° |
| 2026-04-24 02:03 | -1.28636 | 116.51386 | 9585 ft | 283 kts | 111° |
| 2026-04-24 02:03 | -1.29363 | 116.53208 | 9052 ft | 282 kts | 109° |
| 2026-04-24 02:04 | -1.30031 | 116.55040 | 8553 ft | 279 kts | 108° |
| 2026-04-24 02:04 | -1.30648 | 116.56845 | 8007 ft | 268 kts | 107° |
| 2026-04-24 02:04 | -1.31219 | 116.58588 | 7347 ft | 262 kts | 107° |
| 2026-04-24 02:04 | -1.31771 | 116.60319 | 6620 ft | 260 kts | 106° |
| 2026-04-24 02:05 | -1.32313 | 116.62041 | 5898 ft | 259 kts | 106° |
| 2026-04-24 02:05 | -1.32839 | 116.63733 | 5255 ft | 258 kts | 106° |
| 2026-04-24 02:05 | -1.33359 | 116.65409 | 4955 ft | 246 kts | 106° |
| 2026-04-24 02:05 | -1.33855 | 116.67009 | 4741 ft | 232 kts | 106° |
| 2026-04-24 02:06 | -1.34311 | 116.68485 | 4602 ft | 213 kts | 106° |
| 2026-04-24 02:06 | -1.34728 | 116.69832 | 4463 ft | 193 kts | 105° |
| 2026-04-24 02:06 | -1.35047 | 116.71066 | 4330 ft | 174 kts | 90° |
| 2026-04-24 02:06 | -1.34765 | 116.72179 | 4042 ft | 164 kts | 65° |
| 2026-04-24 02:07 | -1.34253 | 116.73201 | 3664 ft | 162 kts | 63° |
| 2026-04-24 02:07 | -1.33756 | 116.74160 | 3398 ft | 153 kts | 63° |
| 2026-04-24 02:07 | -1.33272 | 116.75090 | 3075 ft | 151 kts | 62° |
| 2026-04-24 02:07 | -1.32783 | 116.76025 | 2708 ft | 150 kts | 62° |
| 2026-04-24 02:08 | -1.32299 | 116.76948 | 2345 ft | 150 kts | 62° |
| 2026-04-24 02:08 | -1.31833 | 116.77839 | 2166 ft | 142 kts | 62° |
| 2026-04-24 02:08 | -1.31375 | 116.78728 | 2023 ft | 144 kts | 64° |
| 2026-04-24 02:08 | -1.30978 | 116.79638 | 1842 ft | 145 kts | 66° |
| 2026-04-24 02:09 | -1.30594 | 116.80548 | 1657 ft | 139 kts | 66° |
| 2026-04-24 02:09 | -1.30216 | 116.81443 | 1465 ft | 138 kts | 67° |
| 2026-04-24 02:09 | -1.29840 | 116.82333 | 1290 ft | 141 kts | 66° |
| 2026-04-24 02:09 | -1.29459 | 116.83232 | 1101 ft | 140 kts | 67° |
| 2026-04-24 02:10 | -1.29084 | 116.84117 | 939 ft | 141 kts | 68° |
| 2026-04-24 02:10 | -1.28699 | 116.85027 | 783 ft | 142 kts | 66° |
| 2026-04-24 02:10 | -1.28306 | 116.85953 | 607 ft | 143 kts | 67° |
| 2026-04-24 02:10 | -1.27951 | 116.86848 | 395 ft | 136 kts | 66° |
| 2026-04-24 02:11 | -1.27560 | 116.87702 | 275 ft | 136 kts | 66° |
| 2026-04-24 02:11 | -1.27200 | 116.88573 | 57 ft | 133 kts | 68° |
| 2026-04-24 02:11 | -1.26878 | 116.89343 | 20 ft | 106 kts | 68° |
| 2026-04-24 02:11 | -1.26655 | 116.89873 | 22 ft | 55 kts | 68° |
| 2026-04-24 02:12 | -1.26543 | 116.90104 | 19 ft | 22 kts | 33° |
| 2026-04-24 02:12 | -1.26403 | 116.90076 | 20 ft | 21 kts | 336° |
| 2026-04-24 02:12 | -1.26313 | 116.89988 | 22 ft | 9 kts | 300° |
| 2026-04-24 02:12 | -1.26269 | 116.89963 | 20 ft | 0 kts | 339° |
| 2026-04-24 02:13 | -1.26268 | 116.89963 | 20 ft | 0 kts | 339° |